Time;durP1;ratioP1;P1;durP2;ratioP2;P2;SDS_P1;SDS_P2;PMS_P1;PMS_P2;Temp;Humidity;BMP_temperature;BMP_pressure;BME280_temperature;BME280_humidity;BME280_pressure;Samples;Min_cycle;Max_cycle;Signal;HPM_P1;HPM_P2
2023/01/08 00:02:09;;;;;;;26.13;12.48;;;11.00;99.90;;;;;;5001882;28;20514;-82
2023/01/08 00:04:35;;;;;;;24.52;12.27;;;11.00;99.90;;;;;;5018808;28;20394;-80
2023/01/08 00:07:01;;;;;;;45.42;28.63;;;11.00;99.90;;;;;;4997613;28;20042;-82
2023/01/08 00:09:27;;;;;;;22.17;11.25;;;11.00;99.90;;;;;;5019407;28;20025;-82
2023/01/08 00:11:53;;;;;;;63.08;38.15;;;11.00;99.90;;;;;;4999408;28;20371;-81
2023/01/08 00:14:19;;;;;;;30.65;14.60;;;10.90;99.90;;;;;;4997266;28;20022;-81
2023/01/08 00:16:44;;;;;;;19.60;8.63;;;10.90;99.90;;;;;;5000030;28;20538;-79
2023/01/08 00:19:13;;;;;;;36.20;18.23;;;10.80;99.90;;;;;;5016144;28;20026;-82
2023/01/08 00:21:39;;;;;;;35.58;14.85;;;10.80;99.90;;;;;;5010325;28;20092;-81
2023/01/08 00:24:05;;;;;;;115.72;70.88;;;10.70;99.90;;;;;;4999315;28;20026;-82
2023/01/08 00:26:31;;;;;;;27.13;15.10;;;10.80;99.90;;;;;;4999108;28;20100;-81
2023/01/08 00:28:56;;;;;;;59.95;39.60;;;10.70;99.90;;;;;;5017239;28;20022;-81
2023/01/08 00:31:23;;;;;;;28.02;16.83;;;10.70;99.90;;;;;;5000021;28;20088;-81
2023/01/08 00:33:49;;;;;;;113.85;61.95;;;10.60;99.90;;;;;;5002944;28;20015;-82
2023/01/08 00:36:17;;;;;;;25.98;14.63;;;10.50;99.90;;;;;;5000388;28;20449;-82
2023/01/08 00:38:44;;;;;;;41.58;21.10;;;10.50;99.90;;;;;;4998347;28;20046;-81
2023/01/08 00:41:12;;;;;;;46.55;26.70;;;10.40;99.90;;;;;;5001064;28;20037;-81
2023/01/08 00:43:38;;;;;;;56.28;30.48;;;10.40;99.90;;;;;;5011126;28;20022;-82
2023/01/08 00:46:04;;;;;;;121.15;70.85;;;10.30;99.90;;;;;;5001515;28;20037;-82
2023/01/08 00:48:32;;;;;;;69.70;43.50;;;10.20;99.90;;;;;;5014144;28;20062;-82
2023/01/08 00:51:01;;;;;;;104.32;59.78;;;10.10;99.90;;;;;;5002027;28;20030;-82
2023/01/08 00:53:27;;;;;;;47.03;20.08;;;10.00;99.90;;;;;;5000322;28;20121;-82
2023/01/08 00:56:05;;;;;;;59.50;34.92;;;9.90;99.90;;;;;;5019332;28;20033;-82
2023/01/08 00:58:32;;;;;;;47.05;15.60;;;9.80;99.90;;;;;;5016610;28;20089;-82
2023/01/08 01:00:58;;;;;;;17.73;8.60;;;9.70;99.90;;;;;;5001912;28;20116;-81
2023/01/08 01:03:23;;;;;;;82.03;47.40;;;9.60;99.90;;;;;;5000692;28;20030;-81
2023/01/08 01:05:49;;;;;;;21.52;10.88;;;9.60;99.90;;;;;;5001563;28;20026;-81
2023/01/08 01:08:15;;;;;;;49.20;28.95;;;9.50;99.90;;;;;;5007804;28;20077;-81
2023/01/08 01:10:41;;;;;;;171.10;105.45;;;9.50;99.90;;;;;;5001565;28;20444;-81
2023/01/08 01:13:07;;;;;;;33.03;16.85;;;9.40;99.90;;;;;;5011094;28;20097;-81
2023/01/08 01:15:34;;;;;;;33.58;18.38;;;9.40;99.90;;;;;;5001247;28;20030;-82
2023/01/08 01:18:00;;;;;;;39.05;21.38;;;9.30;99.90;;;;;;5012061;28;20083;-82
2023/01/08 01:20:26;;;;;;;20.92;8.80;;;9.30;99.90;;;;;;5018972;28;20478;-82
2023/01/08 01:22:51;;;;;;;74.60;40.60;;;9.20;99.90;;;;;;5000537;28;20113;-82
2023/01/08 01:25:18;;;;;;;30.45;14.50;;;9.10;99.90;;;;;;5018579;28;20044;-82
2023/01/08 01:27:44;;;;;;;102.28;59.33;;;9.10;99.90;;;;;;5010779;28;20022;-84
2023/01/08 01:30:10;;;;;;;31.48;10.43;;;9.00;99.90;;;;;;5001016;28;20036;-82
2023/01/08 01:32:36;;;;;;;28.67;13.07;;;9.00;99.90;;;;;;4998983;28;20026;-83
2023/01/08 01:35:02;;;;;;;68.95;35.22;;;9.00;99.90;;;;;;5000944;28;20072;-82
2023/01/08 01:37:28;;;;;;;74.10;41.60;;;8.90;99.90;;;;;;5012973;28;20055;-82
2023/01/08 01:39:55;;;;;;;24.17;10.65;;;8.90;99.90;;;;;;5014798;28;20032;-82
2023/01/08 01:42:39;;;;;;;23.20;10.68;;;8.90;99.90;;;;;;4996777;28;20030;-82
2023/01/08 01:45:21;;;;;;;65.28;36.10;;;8.90;99.90;;;;;;5015641;28;20068;-82
2023/01/08 01:48:12;;;;;;;17.63;7.72;;;9.00;99.90;;;;;;5013580;28;20437;-83
2023/01/08 01:50:48;;;;;;;15.82;8.02;;;9.00;99.90;;;;;;4999183;28;20402;-82
2023/01/08 01:53:18;;;;;;;27.70;10.27;;;9.10;99.90;;;;;;5015577;28;20033;-83
2023/01/08 01:55:45;;;;;;;26.77;10.20;;;9.20;99.90;;;;;;5010677;28;20029;-83
2023/01/08 01:58:16;;;;;;;23.67;8.95;;;9.20;99.90;;;;;;4995564;28;20030;-82
2023/01/08 02:00:43;;;;;;;20.17;9.05;;;9.30;99.90;;;;;;5011606;28;20058;-83
2023/01/08 02:03:14;;;;;;;31.33;17.35;;;9.50;99.90;;;;;;4994163;28;20108;-83
2023/01/08 02:06:06;;;;;;;26.08;10.98;;;9.50;99.90;;;;;;5000116;28;20036;-82
2023/01/08 02:09:01;;;;;;;25.67;11.68;;;9.50;99.90;;;;;;4995299;28;20133;-81
2023/01/08 02:11:30;;;;;;;19.23;9.70;;;9.50;99.90;;;;;;5015987;28;20029;-81
2023/01/08 02:14:14;;;;;;;32.47;9.88;;;9.50;99.90;;;;;;5016706;28;20075;-83
2023/01/08 02:17:05;;;;;;;21.70;9.95;;;9.60;99.90;;;;;;5016234;28;20033;-82
2023/01/08 02:19:55;;;;;;;;;;;9.60;99.90;;;;;;5017807;28;20049;-81
2023/01/08 02:22:52;;;;;;;22.17;8.27;;;9.60;99.90;;;;;;4995774;28;19932;-82
2023/01/08 02:25:29;;;;;;;17.35;8.50;;;9.70;99.90;;;;;;4996669;28;20057;-82
2023/01/08 02:27:57;;;;;;;23.13;9.32;;;9.70;99.90;;;;;;5010082;28;20025;-82
2023/01/08 02:30:24;;;;;;;19.10;9.23;;;9.70;99.90;;;;;;5016962;28;20077;-82
2023/01/08 02:32:50;;;;;;;28.58;9.77;;;9.70;99.90;;;;;;5011004;28;20021;-82
2023/01/08 02:35:16;;;;;;;25.60;9.50;;;9.70;99.90;;;;;;5013422;28;20038;-82
2023/01/08 02:37:42;;;;;;;18.75;8.38;;;9.70;99.90;;;;;;4999242;28;20030;-83
2023/01/08 02:40:30;;;;;;;21.63;7.55;;;9.70;99.90;;;;;;4996610;28;20064;-84
2023/01/08 02:43:07;;;;;;;23.40;9.23;;;9.70;99.90;;;;;;4994494;28;20061;-84
2023/01/08 02:45:46;;;;;;;22.15;8.25;;;9.80;99.90;;;;;;5017897;28;20037;-84
2023/01/08 02:48:37;;;;;;;23.67;8.32;;;9.70;99.90;;;;;;5013981;28;20389;-84
2023/01/08 02:51:16;;;;;;;24.63;9.32;;;9.70;99.90;;;;;;4994793;28;20029;-85
2023/01/08 02:53:49;;;;;;;72.03;40.95;;;9.70;99.90;;;;;;5014622;28;20026;-86
2023/01/08 02:56:23;;;;;;;52.55;30.88;;;9.70;99.90;;;;;;5016073;28;20076;-85
2023/01/08 02:58:52;;;;;;;32.55;18.35;;;9.60;99.90;;;;;;5014027;28;20034;-85
2023/01/08 03:01:21;;;;;;;20.88;9.73;;;9.60;99.90;;;;;;5015222;28;20018;-84
2023/01/08 03:03:52;;;;;;;17.67;8.70;;;9.60;99.90;;;;;;4995007;28;20495;-85
2023/01/08 03:06:19;;;;;;;26.92;10.20;;;9.60;99.90;;;;;;4991512;28;20461;-86
2023/01/08 03:08:49;;;;;;;19.40;9.10;;;9.50;99.90;;;;;;4991906;28;20056;-86
2023/01/08 03:11:18;;;;;;;22.38;9.68;;;9.50;99.90;;;;;;4997995;28;20026;-86
2023/01/08 03:14:19;;;;;;;20.13;9.63;;;9.50;99.90;;;;;;5009171;28;20022;-87
2023/01/08 03:16:49;;;;;;;23.02;9.80;;;9.50;99.90;;;;;;5013433;28;20030;-85
2023/01/08 03:19:22;;;;;;;22.55;9.18;;;9.40;99.90;;;;;;5013344;28;20030;-84
2023/01/08 03:21:50;;;;;;;26.08;9.48;;;9.40;99.90;;;;;;5014544;28;20021;-85
2023/01/08 03:24:24;;;;;;;20.58;8.45;;;9.40;99.90;;;;;;4998998;28;20038;-85
2023/01/08 03:26:54;;;;;;;24.63;9.95;;;9.50;99.90;;;;;;5013047;28;20436;-84
2023/01/08 03:29:23;;;;;;;20.83;9.40;;;9.50;99.90;;;;;;5013581;28;20040;-83
2023/01/08 03:31:51;;;;;;;21.20;8.52;;;9.50;99.90;;;;;;4995202;28;20034;-85
2023/01/08 03:34:20;;;;;;;18.80;8.40;;;9.50;99.90;;;;;;4999376;28;20022;-85
2023/01/08 03:36:49;;;;;;;25.55;10.15;;;9.50;99.90;;;;;;4998349;28;20022;-85
2023/01/08 03:39:51;;;;;;;21.65;9.43;;;9.50;99.90;;;;;;5010218;28;20076;-85
2023/01/08 03:42:19;;;;;;;20.55;10.90;;;9.50;99.90;;;;;;4993909;28;20038;-87
2023/01/08 03:44:45;;;;;;;20.77;8.90;;;9.50;99.90;;;;;;5014468;28;20482;-86
2023/01/08 03:47:13;;;;;;;25.13;10.10;;;9.50;99.90;;;;;;5014128;28;20030;-86
2023/01/08 03:49:41;;;;;;;22.77;10.18;;;9.60;99.90;;;;;;4998082;28;20049;-85
2023/01/08 03:52:06;;;;;;;20.15;9.27;;;9.60;99.90;;;;;;5014623;28;20014;-86
2023/01/08 03:54:35;;;;;;;19.48;8.95;;;9.60;99.90;;;;;;5013340;28;20026;-85
2023/01/08 03:57:01;;;;;;;21.58;9.40;;;9.50;99.90;;;;;;5014419;28;20018;-86
2023/01/08 03:59:27;;;;;;;22.90;10.27;;;9.60;99.90;;;;;;5014296;28;20033;-86
2023/01/08 04:01:53;;;;;;;21.08;11.20;;;9.60;99.90;;;;;;4998322;28;20033;-84
2023/01/08 04:04:19;;;;;;;21.75;10.52;;;9.50;99.90;;;;;;5015257;28;20032;-85
2023/01/08 04:06:45;;;;;;;26.15;10.80;;;9.60;99.90;;;;;;4996571;28;20113;-84
2023/01/08 04:09:11;;;;;;;26.85;11.50;;;9.50;99.90;;;;;;5007889;28;20021;-84
2023/01/08 04:11:37;;;;;;;19.35;10.43;;;9.60;99.90;;;;;;5015557;28;20011;-83
2023/01/08 04:14:02;;;;;;;30.23;11.25;;;9.60;99.90;;;;;;4997505;28;20730;-83
2023/01/08 04:16:28;;;;;;;32.70;10.77;;;9.60;99.90;;;;;;5018112;28;20018;-83
2023/01/08 04:18:54;;;;;;;23.75;10.63;;;9.50;99.90;;;;;;5015143;28;20056;-83
2023/01/08 04:21:20;;;;;;;23.85;12.00;;;9.50;99.90;;;;;;5018237;28;20018;-81
2023/01/08 04:23:46;;;;;;;30.95;13.18;;;9.50;99.90;;;;;;4999542;28;20030;-82
2023/01/08 04:26:12;;;;;;;22.67;12.43;;;9.50;99.90;;;;;;5018506;28;20102;-83
2023/01/08 04:28:38;;;;;;;24.40;11.90;;;9.50;99.90;;;;;;4999769;28;20566;-82
2023/01/08 04:31:08;;;;;;;23.08;11.55;;;9.50;99.90;;;;;;5019886;28;20025;-82
2023/01/08 04:33:34;;;;;;;18.50;11.38;;;9.50;99.90;;;;;;5010757;28;20029;-80
2023/01/08 04:36:01;;;;;;;19.77;10.60;;;9.40;99.90;;;;;;5017887;28;20033;-81
2023/01/08 04:38:27;;;;;;;20.08;11.10;;;9.40;99.90;;;;;;4998373;28;20577;-83
2023/01/08 04:40:57;;;;;;;25.00;10.48;;;9.40;99.90;;;;;;5000098;28;20026;-82
2023/01/08 04:43:23;;;;;;;18.95;11.45;;;9.40;99.90;;;;;;4997799;28;20032;-81
2023/01/08 04:45:49;;;;;;;22.38;11.23;;;9.40;99.90;;;;;;5018674;28;20116;-82
2023/01/08 04:48:15;;;;;;;27.95;11.55;;;9.40;99.90;;;;;;5016342;28;20064;-82
2023/01/08 04:50:41;;;;;;;21.92;11.60;;;9.40;99.90;;;;;;5018478;28;20411;-81
2023/01/08 04:53:07;;;;;;;24.40;12.07;;;9.40;99.90;;;;;;4997235;28;20018;-81
2023/01/08 04:55:33;;;;;;;20.17;11.68;;;9.40;99.90;;;;;;5019256;28;20033;-82
2023/01/08 04:57:59;;;;;;;16.23;10.45;;;9.40;99.90;;;;;;4998408;28;20022;-81
2023/01/08 05:00:25;;;;;;;25.25;10.45;;;9.40;99.90;;;;;;5019180;28;20026;-81
2023/01/08 05:02:50;;;;;;;21.50;10.98;;;9.30;99.90;;;;;;5000751;28;20026;-82
2023/01/08 05:05:16;;;;;;;16.83;9.45;;;9.30;99.90;;;;;;5019026;28;20022;-81
2023/01/08 05:07:42;;;;;;;28.92;11.52;;;9.30;99.90;;;;;;5011805;28;20848;-82
2023/01/08 05:10:09;;;;;;;21.55;11.52;;;9.20;99.90;;;;;;5000429;28;20029;-81
2023/01/08 05:12:34;;;;;;;27.10;12.20;;;9.20;99.90;;;;;;4994099;28;20022;-82
2023/01/08 05:15:00;;;;;;;21.70;11.13;;;9.20;99.90;;;;;;5017903;28;20033;-81
2023/01/08 05:17:26;;;;;;;28.63;11.95;;;9.20;99.90;;;;;;5013631;28;20033;-81
2023/01/08 05:19:52;;;;;;;25.55;11.32;;;9.20;99.90;;;;;;5018016;28;20030;-81
2023/01/08 05:22:18;;;;;;;30.15;11.60;;;9.20;99.90;;;;;;5015805;28;20025;-81
2023/01/08 05:24:44;;;;;;;16.10;9.80;;;9.10;99.90;;;;;;5017638;28;20038;-82
2023/01/08 05:27:09;;;;;;;19.52;11.15;;;9.10;99.90;;;;;;4995720;28;20046;-82
2023/01/08 05:29:35;;;;;;;26.45;11.30;;;9.10;99.90;;;;;;5018104;28;20025;-81
2023/01/08 05:32:01;;;;;;;22.65;11.07;;;9.10;99.90;;;;;;5013574;28;20038;-81
2023/01/08 05:34:27;;;;;;;16.20;10.85;;;9.10;99.90;;;;;;5005596;28;20042;-81
2023/01/08 05:36:53;;;;;;;23.75;12.43;;;9.10;99.90;;;;;;5012999;28;20089;-80
2023/01/08 05:39:18;;;;;;;28.90;13.50;;;9.00;99.90;;;;;;5013038;28;20477;-80
2023/01/08 05:41:44;;;;;;;17.77;11.20;;;9.00;99.90;;;;;;4999243;28;20041;-80
2023/01/08 05:44:10;;;;;;;31.92;14.55;;;9.00;99.90;;;;;;4999286;28;20026;-81
2023/01/08 05:46:36;;;;;;;25.23;14.05;;;9.00;99.90;;;;;;5016344;28;20046;-81
2023/01/08 05:49:02;;;;;;;24.83;13.43;;;9.10;99.90;;;;;;4999280;28;20056;-81
2023/01/08 05:51:28;;;;;;;29.27;13.85;;;9.00;99.90;;;;;;4998753;28;20063;-81
2023/01/08 05:53:53;;;;;;;27.23;15.35;;;9.00;99.90;;;;;;5017690;28;20022;-81
2023/01/08 05:56:19;;;;;;;26.98;15.80;;;9.10;99.90;;;;;;5016857;28;20045;-81
2023/01/08 05:58:45;;;;;;;32.97;14.88;;;9.10;99.90;;;;;;5015863;28;20030;-81
2023/01/08 06:01:16;;;;;;;31.73;15.40;;;9.10;99.90;;;;;;5000014;28;20030;-81
2023/01/08 06:03:42;;;;;;;;;;;9.10;99.90;;;;;;5013381;28;20030;-81
2023/01/08 06:06:09;;;;;;;29.15;14.85;;;9.10;99.90;;;;;;5018155;28;19905;-81
2023/01/08 06:08:35;;;;;;;26.77;15.35;;;9.10;99.90;;;;;;4995601;28;20033;-81
2023/01/08 06:11:05;;;;;;;29.75;14.82;;;9.10;99.90;;;;;;5017892;28;20014;-81
2023/01/08 06:13:31;;;;;;;32.25;16.38;;;9.10;99.90;;;;;;5009542;28;20026;-81
2023/01/08 06:15:59;;;;;;;28.13;14.20;;;9.10;99.90;;;;;;5017447;28;20018;-81
2023/01/08 06:18:25;;;;;;;26.20;14.05;;;9.10;99.90;;;;;;4999415;28;20083;-81
2023/01/08 06:20:51;;;;;;;24.02;14.32;;;9.10;99.90;;;;;;5018140;28;20022;-81
2023/01/08 06:23:17;;;;;;;27.67;13.38;;;9.10;99.90;;;;;;4989294;28;20125;-82
2023/01/08 06:25:43;;;;;;;28.40;13.75;;;9.10;99.90;;;;;;5011336;28;20414;-82
2023/01/08 06:28:09;;;;;;;24.95;14.13;;;9.10;99.90;;;;;;4995841;28;20088;-83
2023/01/08 06:30:35;;;;;;;24.90;13.30;;;9.10;99.90;;;;;;4999812;28;20014;-82
2023/01/08 06:33:01;;;;;;;24.48;13.13;;;9.10;99.90;;;;;;5006799;28;20541;-84
2023/01/08 06:35:28;;;;;;;33.20;12.15;;;9.10;99.90;;;;;;5012466;28;20462;-83
2023/01/08 06:37:55;;;;;;;19.58;11.93;;;9.10;99.90;;;;;;5010305;28;20033;-83
2023/01/08 06:40:21;;;;;;;22.88;12.65;;;9.00;99.90;;;;;;4996505;28;20041;-82
2023/01/08 06:42:47;;;;;;;19.38;12.05;;;9.00;99.90;;;;;;5013222;28;20022;-83
2023/01/08 06:45:13;;;;;;;23.42;12.57;;;8.90;99.90;;;;;;4997308;28;20033;-83
2023/01/08 06:47:38;;;;;;;31.20;12.68;;;8.90;99.90;;;;;;4993705;28;20026;-82
2023/01/08 06:50:05;;;;;;;24.45;13.75;;;8.90;99.90;;;;;;5015434;28;20030;-82
2023/01/08 06:52:32;;;;;;;26.42;12.30;;;8.90;99.90;;;;;;4996890;28;20093;-82
2023/01/08 06:54:58;;;;;;;23.05;13.00;;;8.90;99.90;;;;;;5017016;28;20057;-84
2023/01/08 06:57:24;;;;;;;26.77;12.30;;;8.80;99.90;;;;;;5013716;28;20033;-83
2023/01/08 06:59:50;;;;;;;26.13;12.68;;;8.90;99.90;;;;;;4993309;28;20026;-83
2023/01/08 07:02:17;;;;;;;30.80;12.85;;;8.90;99.90;;;;;;4995684;28;20026;-83
2023/01/08 07:04:43;;;;;;;24.20;12.25;;;8.90;99.90;;;;;;5017305;28;20029;-83
2023/01/08 07:07:14;;;;;;;28.23;13.13;;;8.90;99.90;;;;;;5014101;28;20030;-82
2023/01/08 07:09:41;;;;;;;23.98;12.15;;;8.90;99.90;;;;;;5012273;28;20030;-83
2023/01/08 07:12:12;;;;;;;23.27;12.90;;;8.80;99.90;;;;;;5012732;28;20478;-82
2023/01/08 07:14:38;;;;;;;22.00;11.60;;;8.80;99.90;;;;;;4999220;28;20026;-82
2023/01/08 07:17:04;;;;;;;21.95;12.82;;;8.90;99.90;;;;;;5013810;28;20042;-82
2023/01/08 07:19:30;;;;;;;26.20;12.40;;;8.80;99.90;;;;;;5014280;28;20029;-82
2023/01/08 07:21:56;;;;;;;26.77;11.75;;;8.80;99.90;;;;;;5013020;28;20056;-82
2023/01/08 07:24:22;;;;;;;24.42;12.75;;;8.80;99.90;;;;;;5006310;28;20026;-81
2023/01/08 07:26:48;;;;;;;25.05;13.13;;;8.80;99.90;;;;;;4996847;28;20060;-81
2023/01/08 07:29:13;;;;;;;21.83;12.70;;;8.70;99.90;;;;;;5007183;28;20034;-82
2023/01/08 07:31:39;;;;;;;18.45;13.35;;;8.70;99.90;;;;;;4997698;28;20085;-81
2023/01/08 07:34:05;;;;;;;26.17;13.40;;;8.70;99.90;;;;;;5008892;28;20018;-81
2023/01/08 07:36:31;;;;;;;34.53;14.07;;;8.70;99.90;;;;;;5014896;28;20717;-80
2023/01/08 07:38:57;;;;;;;31.27;13.95;;;8.60;99.90;;;;;;5009687;28;20030;-81
2023/01/08 07:41:23;;;;;;;28.83;13.70;;;8.70;99.90;;;;;;5015246;28;20444;-80
2023/01/08 07:43:49;;;;;;;28.85;12.80;;;8.60;99.90;;;;;;4996700;28;20030;-81
2023/01/08 07:46:15;;;;;;;33.75;12.82;;;8.70;99.90;;;;;;5016337;28;20510;-80
2023/01/08 07:48:41;;;;;;;32.15;13.73;;;8.60;99.90;;;;;;5018766;28;20486;-80
2023/01/08 07:51:07;;;;;;;28.42;12.38;;;8.60;99.90;;;;;;5020083;28;20053;-81
2023/01/08 07:53:35;;;;;;;26.05;13.10;;;8.60;99.90;;;;;;5016093;28;20082;-81
2023/01/08 07:56:06;;;;;;;23.50;13.02;;;8.60;99.90;;;;;;5020453;28;20502;-80
2023/01/08 07:58:33;;;;;;;25.92;12.38;;;8.50;99.90;;;;;;5001725;28;20097;-81
2023/01/08 08:00:59;;;;;;;22.52;12.10;;;8.50;99.90;;;;;;5020496;28;20078;-80
2023/01/08 08:03:26;;;;;;;28.83;14.00;;;8.50;99.90;;;;;;5008861;28;20036;-79
2023/01/08 08:05:52;;;;;;;21.20;12.50;;;8.60;99.90;;;;;;5020391;28;20033;-81
2023/01/08 08:08:18;;;;;;;33.05;13.40;;;8.50;99.90;;;;;;5001616;28;20486;-82
2023/01/08 08:10:45;;;;;;;31.08;13.02;;;8.50;99.90;;;;;;5019865;28;20489;-82
2023/01/08 08:13:11;;;;;;;30.67;13.60;;;8.60;99.90;;;;;;5001937;28;20561;-81
2023/01/08 08:15:38;;;;;;;29.00;13.63;;;8.60;99.90;;;;;;5002519;28;20497;-81
2023/01/08 08:18:05;;;;;;;23.27;14.32;;;8.60;99.90;;;;;;5013963;28;20498;-81
2023/01/08 08:20:31;;;;;;;29.58;13.38;;;8.60;99.90;;;;;;5016251;28;20035;-84
2023/01/08 08:23:07;;;;;;;27.63;15.10;;;8.60;99.90;;;;;;5012780;28;20402;-82
2023/01/08 08:25:33;;;;;;;26.20;14.45;;;8.60;99.90;;;;;;5013668;28;20053;-81
2023/01/08 08:28:01;;;;;;;31.30;15.27;;;8.60;99.90;;;;;;5013150;28;20026;-79
2023/01/08 08:30:28;;;;;;;30.70;16.58;;;8.60;99.90;;;;;;5019462;28;20520;-79
2023/01/08 08:32:57;;;;;;;25.13;14.68;;;8.70;99.90;;;;;;5001337;28;20467;-79
2023/01/08 08:35:23;;;;;;;28.30;17.92;;;8.70;99.90;;;;;;5001748;28;20161;-79
2023/01/08 08:37:49;;;;;;;57.72;33.00;;;8.80;99.90;;;;;;5012740;28;20046;-79
2023/01/08 08:40:15;;;;;;;71.28;39.03;;;8.80;99.90;;;;;;5001962;28;20478;-80
2023/01/08 08:42:41;;;;;;;106.85;49.88;;;8.80;99.90;;;;;;5014612;28;20358;-80
2023/01/08 08:45:07;;;;;;;112.05;48.20;;;8.90;99.90;;;;;;4992106;28;20411;-80
2023/01/08 08:47:33;;;;;;;55.22;24.52;;;8.90;99.90;;;;;;4999489;28;20499;-80
2023/01/08 08:49:59;;;;;;;419.98;164.80;;;9.00;99.90;;;;;;5000373;28;20045;-80
2023/01/08 08:52:24;;;;;;;41.33;19.35;;;9.20;99.90;;;;;;5016422;28;20026;-81
2023/01/08 08:54:50;;;;;;;306.77;124.78;;;9.20;99.90;;;;;;5000899;28;20026;-81
2023/01/08 08:57:16;;;;;;;31.63;16.35;;;9.30;99.90;;;;;;5014760;28;20123;-81
2023/01/08 08:59:42;;;;;;;196.05;75.35;;;9.30;99.90;;;;;;4995401;28;20026;-82
2023/01/08 09:02:10;;;;;;;59.60;25.23;;;9.30;99.90;;;;;;5015477;28;20053;-80
2023/01/08 09:04:36;;;;;;;194.68;81.15;;;9.30;99.90;;;;;;5016949;28;20021;-82
2023/01/08 09:07:02;;;;;;;78.13;38.58;;;9.30;99.90;;;;;;5015407;28;20041;-81
2023/01/08 09:09:28;;;;;;;92.45;43.42;;;9.30;99.90;;;;;;5019077;28;20026;-81
2023/01/08 09:11:55;;;;;;;421.73;209.98;;;9.40;99.90;;;;;;5014383;28;20093;-81
2023/01/08 09:14:20;;;;;;;390.77;194.65;;;9.50;99.90;;;;;;5010834;28;20050;-81
2023/01/08 09:16:46;;;;;;;92.95;46.88;;;9.60;99.90;;;;;;4998579;28;20027;-82
2023/01/08 09:19:12;;;;;;;29.42;16.90;;;9.70;99.90;;;;;;4993665;28;20165;-82
2023/01/08 09:21:38;;;;;;;51.38;30.80;;;9.70;99.90;;;;;;5015182;28;20026;-81
2023/01/08 09:24:05;;;;;;;115.50;68.72;;;9.70;99.90;;;;;;5000039;28;20069;-82
2023/01/08 09:26:30;;;;;;;30.10;19.27;;;9.80;99.90;;;;;;5014740;28;20124;-82
2023/01/08 09:28:58;;;;;;;28.02;15.45;;;9.70;99.90;;;;;;5012331;28;20065;-81
2023/01/08 09:31:24;;;;;;;19.92;14.02;;;9.70;99.90;;;;;;4998835;28;20025;-82
2023/01/08 09:33:50;;;;;;;22.95;12.63;;;9.80;99.90;;;;;;5011832;28;20052;-81
2023/01/08 09:36:16;;;;;;;18.80;13.75;;;9.80;99.90;;;;;;4999320;28;20485;-82
2023/01/08 09:38:43;;;;;;;65.40;41.40;;;9.80;99.90;;;;;;5010776;28;20030;-82
2023/01/08 09:41:27;;;;;;;36.45;15.00;;;9.80;99.90;;;;;;5017380;28;20026;-81
2023/01/08 09:43:55;;;;;;;21.00;11.68;;;9.90;99.90;;;;;;5012447;28;20400;-80
2023/01/08 09:46:24;;;;;;;39.42;20.92;;;9.90;99.90;;;;;;5000035;28;20425;-81
2023/01/08 09:48:52;;;;;;;49.83;35.15;;;10.00;99.90;;;;;;5008128;28;20398;-80
2023/01/08 09:51:19;;;;;;;26.85;16.35;;;10.10;99.90;;;;;;5017473;28;20018;-81
2023/01/08 09:53:54;;;;;;;38.33;25.63;;;10.10;99.90;;;;;;4997275;28;20030;-81
2023/01/08 09:56:20;;;;;;;28.50;17.73;;;10.20;99.90;;;;;;5009785;28;20018;-82
2023/01/08 09:58:50;;;;;;;22.23;14.25;;;10.30;99.90;;;;;;4989916;28;20034;-82
2023/01/08 10:01:29;;;;;;;21.52;14.50;;;10.40;99.90;;;;;;5010834;28;20028;-82
2023/01/08 10:04:18;;;;;;;21.70;15.77;;;10.40;99.90;;;;;;4995266;28;20351;-83
2023/01/08 10:07:24;;;;;;;26.00;11.70;;;10.60;99.90;;;;;;5001896;28;20037;-84
2023/01/08 10:09:51;;;;;;;20.50;13.88;;;10.70;99.90;;;;;;5013711;28;20038;-84
2023/01/08 10:12:34;;;;;;;14.45;9.38;;;10.70;99.90;;;;;;5011997;28;20074;-84
2023/01/08 10:15:11;;;;;;;20.95;11.35;;;10.90;99.90;;;;;;5007929;28;20080;-81
2023/01/08 10:17:40;;;;;;;17.85;9.73;;;11.00;99.90;;;;;;5008982;28;20030;-82
2023/01/08 10:20:18;;;;;;;22.40;10.05;;;11.00;99.90;;;;;;5000400;28;20044;-84
2023/01/08 10:22:46;;;;;;;14.45;8.95;;;11.00;99.90;;;;;;5009930;28;20026;-84
2023/01/08 10:25:18;;;;;;;15.00;8.45;;;11.00;99.90;;;;;;5011899;28;20029;-79
2023/01/08 10:27:59;;;;;;;19.27;8.88;;;10.90;99.90;;;;;;5014013;28;20033;-81
2023/01/08 10:30:37;;;;;;;20.38;9.48;;;10.90;99.90;;;;;;4993370;28;20033;-85
2023/01/08 10:33:25;;;;;;;25.17;9.85;;;10.80;99.90;;;;;;5007726;28;20030;-83
2023/01/08 10:36:07;;;;;;;21.42;10.05;;;10.80;99.90;;;;;;4997204;28;20029;-80
2023/01/08 10:38:35;;;;;;;17.05;9.02;;;10.80;99.90;;;;;;4994477;28;20474;-83
2023/01/08 10:41:05;;;;;;;20.55;9.70;;;10.90;99.90;;;;;;4998401;28;20029;-79
2023/01/08 10:43:52;;;;;;;18.17;9.73;;;10.90;99.90;;;;;;5005099;28;20517;-82
2023/01/08 10:46:42;;;;;;;16.27;9.20;;;11.00;99.90;;;;;;4999489;28;20136;-81
2023/01/08 10:49:33;;;;;;;15.05;8.80;;;11.00;99.90;;;;;;5016829;28;20030;-81
2023/01/08 10:51:59;;;;;;;28.40;9.27;;;11.00;99.90;;;;;;5015146;28;20165;-78
2023/01/08 10:54:33;;;;;;;12.65;7.55;;;11.00;99.90;;;;;;4999290;28;20335;-84
2023/01/08 10:56:59;;;;;;;14.05;7.72;;;11.00;99.90;;;;;;4998575;28;20391;-78
2023/01/08 10:59:25;;;;;;;16.98;9.20;;;10.90;99.90;;;;;;5015350;28;20061;-79
2023/01/08 11:01:57;;;;;;;17.95;9.55;;;10.80;99.90;;;;;;4986492;28;20557;-80
2023/01/08 11:04:35;;;;;;;13.75;8.75;;;10.70;99.90;;;;;;5019389;28;20040;-79
2023/01/08 11:07:04;;;;;;;23.95;13.45;;;10.60;99.90;;;;;;5017610;28;20569;-78
2023/01/08 11:09:33;;;;;;;35.03;18.58;;;10.70;99.90;;;;;;5019609;28;20065;-82
2023/01/08 11:12:00;;;;;;;15.93;10.80;;;10.70;99.90;;;;;;4999644;28;20022;-80
2023/01/08 11:14:35;;;;;;;15.82;9.98;;;10.70;99.90;;;;;;5024776;28;20052;-80
2023/01/08 11:17:09;;;;;;;45.33;24.92;;;10.70;99.90;;;;;;5015447;28;20024;-82
2023/01/08 11:19:35;;;;;;;110.75;58.50;;;10.80;99.90;;;;;;5014394;28;21328;-82
2023/01/08 11:22:23;;;;;;;30.88;16.08;;;10.90;99.90;;;;;;5011177;28;20026;-81
2023/01/08 11:24:50;;;;;;;62.33;32.17;;;11.10;99.90;;;;;;5016528;28;20088;-81
2023/01/08 11:27:25;;;;;;;51.97;24.73;;;11.20;99.90;;;;;;5000949;28;20146;-83
2023/01/08 11:29:57;;;;;;;76.35;35.60;;;11.30;99.90;;;;;;5021217;28;20025;-81
2023/01/08 11:32:23;;;;;;;199.98;89.45;;;11.30;99.90;;;;;;4996653;28;20026;-82
2023/01/08 11:35:23;;;;;;;36.35;16.25;;;11.40;99.90;;;;;;5015962;28;20024;-76
2023/01/08 11:37:58;;;;;;;48.97;21.15;;;11.50;99.90;;;;;;4948189;28;20441;-77
2023/01/08 11:40:30;;;;;;;231.85;110.25;;;11.50;99.90;;;;;;5000629;28;20041;-79
2023/01/08 11:43:26;;;;;;;33.67;17.92;;;11.50;99.90;;;;;;5001177;28;20029;-79
2023/01/08 11:46:29;;;;;;;25.20;12.05;;;11.60;99.90;;;;;;5001305;28;20029;-77
2023/01/08 11:49:09;;;;;;;60.50;28.13;;;11.50;99.90;;;;;;5018235;28;20037;-79
2023/01/08 11:52:03;;;;;;;26.75;11.65;;;11.60;99.90;;;;;;5020020;28;20033;-78
2023/01/08 11:54:50;;;;;;;36.03;17.42;;;11.50;99.90;;;;;;5017572;28;20020;-76
2023/01/08 11:57:31;;;;;;;239.10;118.65;;;11.50;99.90;;;;;;5002610;28;20033;-81
2023/01/08 12:00:25;;;;;;;62.10;31.08;;;11.50;99.90;;;;;;5008290;28;20112;-80
2023/01/08 12:02:53;;;;;;;20.90;9.93;;;11.40;99.90;;;;;;5014322;28;20021;-80
2023/01/08 12:05:45;;;;;;;86.50;40.50;;;11.40;99.90;;;;;;5015618;28;20099;-79
2023/01/08 12:08:52;;;;;;;23.10;10.20;;;11.40;99.90;;;;;;5015284;28;20033;-79
2023/01/08 12:11:24;;;;;;;16.02;8.05;;;11.40;99.90;;;;;;4992420;28;20033;-78
2023/01/08 12:14:16;;;;;;;18.70;9.63;;;11.40;99.90;;;;;;5014712;28;20101;-78
2023/01/08 12:16:50;;;;;;;25.58;13.25;;;11.50;99.90;;;;;;5009463;28;20022;-78
2023/01/08 12:19:19;;;;;;;15.25;8.45;;;11.50;99.90;;;;;;5015300;28;20038;-78
2023/01/08 12:22:22;;;;;;;17.55;9.43;;;11.60;99.90;;;;;;5010423;28;20160;-78
2023/01/08 12:25:20;;;;;;;151.75;74.03;;;11.60;99.90;;;;;;4996805;28;20080;-83
2023/01/08 12:27:49;;;;;;;51.28;26.33;;;11.60;99.90;;;;;;5002509;28;20065;-79
2023/01/08 12:30:21;;;;;;;45.33;22.05;;;11.70;99.90;;;;;;5022624;28;20030;-78
2023/01/08 12:32:57;;;;;;;27.85;16.63;;;11.70;99.90;;;;;;5018336;28;20400;-78
2023/01/08 12:35:47;;;;;;;16.92;7.57;;;11.80;99.90;;;;;;5005226;28;20026;-80
2023/01/08 12:38:13;;;;;;;44.38;19.90;;;11.80;99.90;;;;;;5016916;28;20033;-78
2023/01/08 12:40:41;;;;;;;42.42;23.63;;;12.00;99.90;;;;;;5023248;28;20030;-79
2023/01/08 12:43:31;;;;;;;27.45;14.43;;;12.00;99.90;;;;;;5015835;28;20029;-77
2023/01/08 12:46:01;;;;;;;67.28;33.05;;;12.10;99.90;;;;;;5021197;28;20042;-77
2023/01/08 12:48:31;;;;;;;20.15;8.38;;;12.20;99.90;;;;;;5020081;28;20113;-79
2023/01/08 12:51:23;;;;;;;105.68;56.72;;;12.20;99.90;;;;;;5003949;28;20124;-80
2023/01/08 12:54:01;;;;;;;29.95;15.13;;;12.30;99.90;;;;;;5018206;28;20040;-81